createdAt,value
2022-10-05T00:01:52.910Z,15.22
2022-10-05T00:04:24.731Z,15.31
2022-10-05T00:06:58.565Z,15.34
2022-10-05T00:09:26.746Z,15.32
2022-10-05T00:11:55.005Z,15.36
2022-10-05T00:14:31.479Z,15.27
2022-10-05T00:17:02.822Z,15.35
2022-10-05T00:19:35.711Z,15.37
2022-10-05T00:22:12.609Z,15.32
2022-10-05T00:24:40.590Z,15.25
2022-10-05T00:27:15.887Z,15.25
2022-10-05T00:29:43.937Z,15.24
2022-10-05T00:32:14.706Z,15.24
2022-10-05T00:34:44.490Z,15.29
2022-10-05T00:37:13.307Z,15.32
2022-10-05T00:39:41.821Z,15.30
2022-10-05T00:42:23.229Z,15.28
2022-10-05T00:44:56.135Z,15.29
2022-10-05T00:47:48.532Z,15.25
2022-10-05T00:50:38.951Z,15.30
2022-10-05T00:53:17.684Z,15.27
2022-10-05T00:55:58.559Z,15.22
2022-10-05T00:58:40.084Z,15.25
2022-10-05T01:01:13.033Z,15.35
2022-10-05T01:03:54.808Z,15.32
2022-10-05T01:06:32.490Z,15.28
2022-10-05T01:09:10.134Z,15.32
2022-10-05T01:11:44.402Z,15.21
2022-10-05T01:14:20.509Z,15.31
2022-10-05T01:16:57.134Z,15.35
2022-10-05T01:20:05.805Z,15.39
2022-10-05T01:22:47.745Z,15.42
2022-10-05T01:25:26.713Z,15.34
2022-10-05T01:28:03.503Z,15.34
2022-10-05T01:30:38.770Z,15.31
2022-10-05T01:33:17.982Z,15.33
2022-10-05T01:35:57.001Z,15.36
2022-10-05T01:38:37.019Z,15.31
2022-10-05T01:41:19.517Z,15.27
2022-10-05T01:43:55.155Z,15.19
2022-10-05T01:46:28.655Z,15.25
2022-10-05T01:49:12.602Z,15.26
2022-10-05T01:51:52.855Z,15.24
2022-10-05T01:54:33.388Z,15.22
2022-10-05T01:57:12.141Z,15.21
2022-10-05T01:59:59.051Z,15.26
2022-10-05T02:02:29.969Z,15.22
2022-10-05T02:05:04.627Z,15.25
2022-10-05T02:07:38.065Z,15.19
2022-10-05T02:10:13.178Z,15.19
2022-10-05T02:12:43.494Z,15.21
2022-10-05T02:15:18.372Z,15.18
2022-10-05T02:17:49.756Z,15.15
2022-10-05T02:20:25.819Z,15.12
2022-10-05T02:22:56.301Z,15.07
2022-10-05T02:25:29.763Z,15.09
2022-10-05T02:28:02.195Z,15.06
2022-10-05T02:30:34.995Z,15.05
2022-10-05T02:33:08.135Z,15.00
2022-10-05T02:35:36.124Z,15.04
2022-10-05T02:38:13.120Z,14.99
2022-10-05T02:40:52.526Z,14.96
2022-10-05T02:43:27.856Z,14.93
2022-10-05T02:46:22.603Z,14.92
2022-10-05T02:49:01.843Z,14.82
2022-10-05T02:51:34.831Z,14.83
2022-10-05T02:54:12.462Z,14.85
2022-10-05T02:56:49.021Z,14.85
2022-10-05T02:59:25.259Z,14.81
2022-10-05T03:02:02.848Z,14.79
2022-10-05T03:04:40.458Z,14.89
2022-10-05T03:07:15.363Z,14.86
2022-10-05T03:09:49.095Z,14.84
2022-10-05T03:12:32.616Z,14.82
2022-10-05T03:15:09.873Z,14.85
2022-10-05T03:17:49.805Z,14.82
2022-10-05T03:20:30.564Z,14.85
2022-10-05T03:23:02.010Z,14.84
2022-10-05T03:26:06.172Z,14.80
2022-10-05T03:28:40.142Z,14.83
2022-10-05T03:31:19.528Z,14.82
2022-10-05T03:33:55.612Z,14.87
2022-10-05T03:36:30.943Z,14.86
2022-10-05T03:39:09.053Z,14.82
2022-10-05T03:41:43.869Z,14.83
2022-10-05T03:44:38.267Z,14.87
2022-10-05T03:47:19.630Z,14.88
2022-10-05T03:50:11.936Z,14.87
2022-10-05T03:52:48.787Z,14.85
2022-10-05T03:55:22.280Z,14.85
2022-10-05T03:57:52.951Z,14.88
2022-10-05T04:00:25.594Z,14.86
2022-10-05T04:02:59.834Z,14.87
2022-10-05T04:05:33.440Z,14.75
2022-10-05T04:08:07.672Z,14.90
2022-10-05T04:10:44.370Z,14.77
2022-10-05T04:13:16.589Z,14.86
2022-10-05T04:15:53.824Z,14.84
2022-10-05T04:18:28.647Z,14.79
2022-10-05T04:21:02.278Z,14.79
2022-10-05T04:23:41.518Z,14.82
2022-10-05T04:26:17.976Z,14.76
2022-10-05T04:28:54.173Z,14.84
2022-10-05T04:31:36.688Z,14.75
2022-10-05T04:34:15.715Z,14.83
2022-10-05T04:36:55.792Z,14.79
2022-10-05T04:39:37.775Z,14.77
2022-10-05T04:42:15.341Z,14.77
2022-10-05T04:45:03.443Z,14.79
2022-10-05T04:47:59.768Z,14.73
2022-10-05T04:50:40.672Z,14.74
2022-10-05T04:53:22.281Z,14.72
2022-10-05T04:55:57.582Z,14.71
2022-10-05T04:58:42.557Z,14.68
2022-10-05T05:01:26.613Z,14.71
2022-10-05T05:04:15.434Z,14.73
2022-10-05T05:06:55.430Z,14.73
2022-10-05T05:09:55.957Z,14.72
2022-10-05T05:12:40.830Z,14.68
2022-10-05T05:15:24.311Z,14.67
2022-10-05T05:18:10.348Z,14.60
2022-10-05T05:20:52.097Z,14.76
2022-10-05T05:23:28.870Z,14.75
2022-10-05T05:26:08.921Z,14.72
2022-10-05T05:28:45.969Z,14.78
2022-10-05T05:31:23.258Z,14.76
2022-10-05T05:34:00.050Z,14.82
2022-10-05T05:36:42.758Z,14.74
2022-10-05T05:39:27.113Z,14.74
2022-10-05T05:42:02.826Z,14.80
2022-10-05T05:44:38.935Z,14.75
2022-10-05T05:47:19.613Z,14.82
2022-10-05T05:50:06.983Z,14.83
2022-10-05T05:52:42.152Z,14.82
2022-10-05T05:55:19.621Z,14.81
2022-10-05T05:57:54.264Z,14.79
2022-10-05T06:00:25.116Z,14.74
2022-10-05T06:03:03.709Z,14.81
2022-10-05T06:05:35.101Z,14.80
2022-10-05T06:08:19.539Z,14.75
2022-10-05T06:10:53.776Z,14.70
2022-10-05T06:13:30.277Z,14.77
2022-10-05T06:16:18.772Z,14.76
2022-10-05T06:18:52.699Z,14.80
2022-10-05T06:21:27.081Z,14.82
2022-10-05T06:24:00.299Z,14.76
2022-10-05T06:26:43.842Z,14.88
2022-10-05T06:29:25.934Z,14.78
2022-10-05T06:32:06.017Z,14.72
2022-10-05T06:34:57.140Z,14.89
2022-10-05T06:37:38.852Z,14.76
2022-10-05T06:40:22.718Z,14.85
2022-10-05T06:43:16.474Z,14.91
2022-10-05T06:45:59.243Z,14.94
2022-10-05T06:48:38.570Z,14.87
2022-10-05T06:51:18.693Z,14.86
2022-10-05T06:53:56.920Z,14.90
2022-10-05T06:56:34.999Z,14.94
2022-10-05T06:59:11.058Z,14.97
2022-10-05T07:01:52.175Z,14.91
2022-10-05T07:04:37.193Z,14.93
2022-10-05T07:07:16.042Z,15.00
2022-10-05T07:10:01.433Z,14.96
2022-10-05T07:12:42.702Z,15.07
2022-10-05T07:15:37.620Z,15.09
2022-10-05T07:18:23.670Z,15.17
2022-10-05T07:21:00.956Z,15.22
2022-10-05T07:23:48.382Z,15.17
2022-10-05T07:26:23.612Z,15.25
2022-10-05T07:29:13.444Z,15.23
2022-10-05T07:31:49.121Z,15.12
2022-10-05T07:34:32.264Z,15.14
2022-10-05T07:37:24.639Z,15.04
2022-10-05T07:40:06.560Z,14.96
2022-10-05T07:42:51.799Z,15.12
2022-10-05T07:45:30.260Z,15.14
2022-10-05T07:48:02.146Z,15.21
2022-10-05T07:50:37.623Z,15.26
2022-10-05T07:53:15.023Z,15.26
2022-10-05T07:55:51.654Z,15.32
2022-10-05T07:58:27.616Z,15.39
2022-10-05T08:01:08.574Z,15.58
2022-10-05T08:03:47.765Z,15.61
2022-10-05T08:06:33.188Z,15.81
2022-10-05T08:09:09.910Z,15.77
2022-10-05T08:11:47.213Z,15.82
2022-10-05T08:14:21.984Z,15.95
2022-10-05T08:16:51.511Z,15.76
2022-10-05T08:19:24.462Z,15.81
2022-10-05T08:22:01.473Z,16.00
2022-10-05T08:24:41.277Z,15.89
2022-10-05T08:27:16.844Z,15.88
2022-10-05T08:29:54.414Z,16.06
2022-10-05T08:32:27.234Z,16.38
2022-10-05T08:35:01.420Z,16.51
2022-10-05T08:37:34.168Z,16.20
2022-10-05T08:40:26.885Z,16.40
2022-10-05T08:43:09.614Z,16.63
2022-10-05T08:46:19.842Z,16.68
2022-10-05T08:49:35.364Z,17.00
2022-10-05T08:52:25.627Z,16.82
2022-10-05T08:55:26.554Z,16.95
2022-10-05T08:58:32.651Z,17.16
2022-10-05T09:01:09.587Z,17.16
2022-10-05T09:03:51.867Z,17.27
2022-10-05T09:06:27.951Z,17.34
2022-10-05T09:09:19.252Z,17.27
2022-10-05T09:12:07.262Z,17.21
2022-10-05T09:15:20.477Z,17.12
2022-10-05T09:18:08.243Z,17.09
2022-10-05T09:20:50.296Z,17.07
2022-10-05T09:23:37.288Z,17.06
2022-10-05T09:26:10.005Z,17.09
2022-10-05T09:28:59.441Z,17.40
2022-10-05T09:31:51.956Z,17.30
2022-10-05T09:34:40.396Z,17.48
2022-10-05T09:37:38.462Z,17.21
2022-10-05T09:40:41.659Z,17.11
2022-10-05T09:43:37.260Z,17.18
2022-10-05T09:46:42.088Z,17.12
2022-10-05T09:50:10.778Z,17.10
2022-10-05T09:53:08.241Z,17.04
2022-10-05T09:56:10.916Z,16.99
2022-10-05T09:59:07.482Z,16.82
2022-10-05T10:02:04.493Z,17.06
2022-10-05T10:05:05.778Z,17.01
2022-10-05T10:07:59.988Z,17.04
2022-10-05T10:10:56.789Z,17.06
2022-10-05T10:14:13.975Z,17.06
2022-10-05T10:17:18.709Z,17.21
2022-10-05T10:20:20.261Z,17.05
2022-10-05T10:23:08.514Z,16.92
2022-10-05T10:26:20.835Z,16.99
2022-10-05T10:29:19.712Z,16.99
2022-10-05T10:32:06.262Z,16.92
2022-10-05T10:35:19.339Z,16.75
2022-10-05T10:38:28.690Z,16.88
2022-10-05T10:41:21.927Z,17.17
2022-10-05T10:44:19.943Z,16.99
2022-10-05T10:47:00.046Z,16.76
2022-10-05T10:49:47.947Z,16.84
2022-10-05T10:52:31.365Z,16.88
2022-10-05T10:55:28.739Z,16.98
2022-10-05T10:58:28.344Z,17.09
2022-10-05T11:01:09.481Z,17.11
2022-10-05T11:03:59.562Z,17.21
2022-10-05T11:06:55.696Z,17.00
2022-10-05T11:10:03.427Z,16.78
2022-10-05T11:12:58.573Z,16.97
2022-10-05T11:16:00.593Z,16.88
2022-10-05T11:19:13.855Z,16.88
2022-10-05T11:21:56.280Z,17.00
2022-10-05T11:24:54.997Z,16.98
2022-10-05T11:28:03.092Z,17.21
2022-10-05T11:31:03.223Z,17.00
2022-10-05T11:34:01.910Z,16.88
2022-10-05T11:37:12.699Z,16.89
2022-10-05T11:40:03.949Z,16.97
2022-10-05T11:43:10.811Z,16.96
2022-10-05T11:45:57.574Z,16.79
2022-10-05T11:49:02.229Z,16.95
2022-10-05T11:51:45.761Z,17.09
2022-10-05T11:54:32.492Z,17.10
2022-10-05T11:57:12.588Z,16.90
2022-10-05T11:59:49.174Z,16.92
2022-10-05T12:02:49.680Z,16.76
2022-10-05T12:05:23.900Z,17.05
2022-10-05T12:08:06.915Z,16.69
2022-10-05T12:10:45.861Z,16.88
2022-10-05T12:13:26.662Z,16.90
2022-10-05T12:15:59.218Z,16.93
2022-10-05T12:18:48.153Z,16.91
2022-10-05T12:21:27.507Z,16.79
2022-10-05T12:24:00.052Z,16.92
2022-10-05T12:26:30.946Z,16.91
2022-10-05T12:29:09.709Z,16.78
2022-10-05T12:31:56.140Z,16.85
2022-10-05T12:34:47.841Z,16.86
2022-10-05T12:37:38.890Z,17.01
2022-10-05T12:40:18.788Z,17.10
2022-10-05T12:42:55.014Z,17.22
2022-10-05T12:45:37.994Z,16.97
2022-10-05T12:48:22.974Z,17.17
2022-10-05T12:50:51.985Z,17.22
2022-10-05T12:53:29.917Z,17.23
2022-10-05T12:56:05.286Z,17.06
2022-10-05T12:58:49.797Z,16.84
2022-10-05T13:01:34.213Z,17.11
2022-10-05T13:04:23.068Z,16.91
2022-10-05T13:07:08.030Z,16.85
2022-10-05T13:09:41.170Z,16.96
2022-10-05T13:12:20.023Z,16.94
2022-10-05T13:15:00.555Z,17.09
2022-10-05T13:17:40.491Z,17.40
2022-10-05T13:20:17.478Z,17.40
2022-10-05T13:22:48.712Z,17.58
2022-10-05T13:25:26.818Z,17.80
2022-10-05T13:28:16.088Z,17.77
2022-10-05T13:30:52.618Z,17.64
2022-10-05T13:33:31.507Z,17.78
2022-10-05T13:36:07.735Z,17.85
2022-10-05T13:38:50.645Z,17.97
2022-10-05T13:41:28.023Z,17.97
2022-10-05T13:44:09.262Z,18.27
2022-10-05T13:46:43.062Z,18.24
2022-10-05T13:49:23.003Z,18.05
2022-10-05T13:51:59.125Z,18.22
2022-10-05T13:54:37.779Z,18.04
2022-10-05T13:57:21.645Z,17.97
2022-10-05T13:59:54.799Z,18.18
2022-10-05T14:02:28.554Z,18.06
2022-10-05T14:05:02.363Z,17.76
2022-10-05T14:07:38.295Z,17.71
2022-10-05T14:10:13.420Z,17.71
2022-10-05T14:12:44.098Z,17.73
2022-10-05T14:15:23.061Z,18.10
2022-10-05T14:17:52.744Z,18.00
2022-10-05T14:20:25.520Z,18.38
2022-10-05T14:22:58.865Z,18.27
2022-10-05T14:25:27.224Z,18.12
2022-10-05T14:28:02.344Z,18.27
2022-10-05T14:30:32.053Z,19.19
2022-10-05T14:33:16.097Z,18.86
2022-10-05T14:35:51.495Z,18.46
2022-10-05T14:38:26.641Z,18.39
2022-10-05T14:41:21.220Z,18.06
2022-10-05T14:43:55.970Z,18.04
2022-10-05T14:46:28.594Z,18.03
2022-10-05T14:49:15.745Z,17.75
2022-10-05T14:51:45.022Z,17.67
2022-10-05T14:54:31.112Z,17.70
2022-10-05T14:57:07.150Z,17.65
2022-10-05T14:59:53.911Z,17.52
2022-10-05T15:02:45.322Z,17.44
2022-10-05T15:05:18.472Z,17.40
2022-10-05T15:07:50.657Z,17.38
2022-10-05T15:10:33.265Z,17.28
2022-10-05T15:13:11.606Z,17.32
2022-10-05T15:15:46.438Z,17.28
2022-10-05T15:18:31.018Z,17.20
2022-10-05T15:21:15.111Z,17.13
2022-10-05T15:23:50.376Z,17.04
2022-10-05T15:26:33.195Z,17.11
2022-10-05T15:29:07.131Z,17.15
2022-10-05T15:31:41.522Z,17.16
2022-10-05T15:34:16.493Z,17.13
2022-10-05T15:36:50.492Z,17.13
2022-10-05T15:39:29.631Z,17.18
2022-10-05T15:42:05.374Z,17.23
2022-10-05T15:44:52.191Z,17.27
2022-10-05T15:47:24.232Z,17.30
2022-10-05T15:50:02.563Z,17.37
2022-10-05T15:52:37.121Z,17.35
2022-10-05T15:55:28.078Z,17.45
2022-10-05T15:58:09.968Z,17.40
2022-10-05T16:00:48.468Z,17.20
2022-10-05T16:03:38.768Z,17.02
2022-10-05T16:06:39.364Z,17.00
2022-10-05T16:09:25.567Z,17.09
2022-10-05T16:12:03.266Z,17.12
2022-10-05T16:14:41.317Z,17.10
2022-10-05T16:17:25.202Z,17.13
2022-10-05T16:20:06.356Z,17.12
2022-10-05T16:22:43.579Z,17.14
2022-10-05T16:25:22.299Z,17.08
2022-10-05T16:28:17.463Z,17.16
2022-10-05T16:30:58.798Z,17.12
2022-10-05T16:33:41.284Z,17.07
2022-10-05T16:36:22.764Z,17.03
2022-10-05T16:38:59.444Z,17.08
2022-10-05T16:41:34.945Z,17.10
2022-10-05T16:44:15.233Z,17.08
2022-10-05T16:46:51.169Z,17.09
2022-10-05T16:49:31.014Z,17.07
2022-10-05T16:52:00.511Z,17.06
2022-10-05T16:54:32.727Z,17.09
2022-10-05T16:57:11.073Z,17.09
2022-10-05T17:00:13.393Z,17.12
2022-10-05T17:03:04.681Z,17.14
2022-10-05T17:06:04.834Z,17.11
2022-10-05T17:09:11.664Z,17.17
2022-10-05T17:11:56.008Z,17.10
2022-10-05T17:14:36.486Z,17.09
2022-10-05T17:17:38.089Z,17.09
2022-10-05T17:20:24.895Z,17.03
2022-10-05T17:23:04.018Z,17.08
2022-10-05T17:25:44.559Z,17.06
2022-10-05T17:28:25.092Z,17.08
2022-10-05T17:31:26.767Z,17.10
2022-10-05T17:34:29.131Z,17.15
2022-10-05T17:37:15.694Z,17.08
2022-10-05T17:39:50.373Z,17.07
2022-10-05T17:42:45.806Z,17.07
2022-10-05T17:45:56.936Z,17.08
2022-10-05T17:48:44.207Z,17.10
2022-10-05T17:52:17.194Z,17.09
2022-10-05T17:55:28.265Z,17.10
2022-10-05T17:57:59.830Z,17.05
2022-10-05T18:01:14.488Z,17.01
2022-10-05T18:03:56.314Z,17.02
2022-10-05T18:06:44.661Z,17.04
2022-10-05T18:09:54.552Z,17.02
2022-10-05T18:12:42.495Z,17.01
2022-10-05T18:15:46.617Z,16.97
2022-10-05T18:18:57.495Z,17.01
2022-10-05T18:21:35.596Z,17.01
2022-10-05T18:24:19.328Z,17.00
2022-10-05T18:27:00.084Z,16.99
2022-10-05T18:30:01.441Z,16.95
2022-10-05T18:32:49.364Z,17.02
2022-10-05T18:35:23.920Z,17.02
2022-10-05T18:38:04.691Z,17.04
2022-10-05T18:40:43.383Z,17.00
2022-10-05T18:43:29.076Z,16.97
2022-10-05T18:46:19.523Z,16.91
2022-10-05T18:48:59.575Z,16.91
2022-10-05T18:51:39.942Z,16.92
2022-10-05T18:54:25.054Z,16.85
2022-10-05T18:56:54.762Z,16.98
2022-10-05T18:59:45.134Z,16.98
2022-10-05T19:02:24.534Z,16.99
2022-10-05T19:05:23.666Z,16.95
2022-10-05T19:08:08.704Z,16.92
2022-10-05T19:10:46.422Z,16.99
2022-10-05T19:13:37.696Z,16.94
2022-10-05T19:16:23.494Z,16.94
2022-10-05T19:19:29.520Z,16.96
2022-10-05T19:22:04.920Z,16.96
2022-10-05T19:24:50.377Z,16.90
2022-10-05T19:27:28.149Z,16.90
2022-10-05T19:30:21.752Z,16.88
2022-10-05T19:33:17.502Z,16.81
2022-10-05T19:35:58.400Z,16.68
2022-10-05T19:38:33.386Z,16.43
2022-10-05T19:41:13.278Z,15.83
2022-10-05T19:44:00.699Z,15.03
2022-10-05T19:46:50.285Z,14.64
2022-10-05T19:49:42.321Z,14.44
2022-10-05T19:52:14.481Z,14.26
2022-10-05T19:54:43.041Z,14.16
2022-10-05T19:57:18.189Z,14.06
2022-10-05T19:59:47.895Z,14.01
2022-10-05T20:02:26.426Z,13.94
2022-10-05T20:05:08.205Z,13.92
2022-10-05T20:07:44.193Z,13.85
2022-10-05T20:10:31.186Z,13.84
2022-10-05T20:13:00.693Z,13.85
2022-10-05T20:15:48.065Z,13.83
2022-10-05T20:19:05.725Z,13.81
2022-10-05T20:21:47.743Z,13.79
2022-10-05T20:24:25.832Z,13.73
2022-10-05T20:27:05.693Z,13.78
2022-10-05T20:29:36.770Z,13.77
2022-10-05T20:32:08.278Z,13.79
2022-10-05T20:34:37.792Z,13.79
2022-10-05T20:37:07.133Z,13.79
2022-10-05T20:39:36.313Z,13.75
2022-10-05T20:42:05.960Z,13.68
2022-10-05T20:44:34.095Z,13.75
2022-10-05T20:47:02.094Z,13.75
2022-10-05T20:49:31.063Z,13.68
2022-10-05T20:52:01.216Z,13.70
2022-10-05T20:54:31.979Z,13.65
2022-10-05T20:56:59.972Z,13.66
2022-10-05T20:59:28.036Z,13.60
2022-10-05T21:01:58.975Z,13.62
2022-10-05T21:04:36.081Z,13.58
2022-10-05T21:07:08.444Z,13.56
2022-10-05T21:09:39.194Z,13.45
2022-10-05T21:12:07.048Z,13.51
2022-10-05T21:14:36.668Z,13.49
2022-10-05T21:17:07.870Z,13.42
2022-10-05T21:19:38.526Z,13.47
2022-10-05T21:22:08.611Z,13.42
2022-10-05T21:24:40.848Z,13.46
2022-10-05T21:27:09.619Z,13.50
2022-10-05T21:29:44.192Z,13.47
2022-10-05T21:32:12.313Z,13.51
2022-10-05T21:34:40.478Z,13.52
2022-10-05T21:37:08.867Z,13.53
2022-10-05T21:39:38.011Z,13.57
2022-10-05T21:42:06.292Z,13.54
2022-10-05T21:44:34.214Z,13.57
2022-10-05T21:47:02.337Z,13.55
2022-10-05T21:49:31.115Z,13.52
2022-10-05T21:52:01.727Z,13.54
2022-10-05T21:54:29.828Z,13.49
2022-10-05T21:57:00.101Z,13.49
2022-10-05T21:59:30.339Z,13.47
2022-10-05T22:01:58.689Z,13.50
2022-10-05T22:04:27.994Z,13.43
2022-10-05T22:06:56.635Z,13.47
2022-10-05T22:09:25.791Z,13.47
2022-10-05T22:11:56.029Z,13.46
2022-10-05T22:14:25.747Z,13.35
2022-10-05T22:16:54.170Z,13.27
2022-10-05T22:19:22.075Z,13.29
2022-10-05T22:21:49.870Z,13.23
2022-10-05T22:24:17.655Z,13.17
2022-10-05T22:26:49.343Z,13.07
2022-10-05T22:29:18.292Z,13.11
2022-10-05T22:31:49.467Z,13.04
2022-10-05T22:34:18.105Z,12.96
2022-10-05T22:36:47.434Z,12.99
2022-10-05T22:39:16.099Z,12.97
2022-10-05T22:41:44.658Z,13.04
2022-10-05T22:44:12.513Z,13.01
2022-10-05T22:46:40.338Z,13.00
2022-10-05T22:49:09.803Z,12.91
2022-10-05T22:51:37.882Z,12.83
2022-10-05T22:54:06.147Z,12.88
2022-10-05T22:56:34.107Z,12.89
2022-10-05T22:59:01.944Z,12.86
2022-10-05T23:01:29.750Z,12.90
2022-10-05T23:03:57.753Z,12.95
2022-10-05T23:06:27.432Z,12.98
2022-10-05T23:08:56.232Z,12.95
2022-10-05T23:11:26.159Z,12.95
2022-10-05T23:14:00.812Z,12.94
2022-10-05T23:16:30.047Z,12.89
2022-10-05T23:18:58.421Z,12.84
2022-10-05T23:21:29.951Z,12.75
2022-10-05T23:23:58.001Z,12.62
2022-10-05T23:26:26.656Z,12.58
2022-10-05T23:28:54.871Z,12.47
2022-10-05T23:31:24.234Z,12.34
2022-10-05T23:33:53.611Z,12.32
2022-10-05T23:36:27.966Z,12.34
2022-10-05T23:38:55.858Z,12.40
2022-10-05T23:41:25.460Z,12.36
2022-10-05T23:43:56.081Z,12.36
2022-10-05T23:46:24.255Z,12.31
2022-10-05T23:48:53.462Z,12.40
2022-10-05T23:51:21.321Z,12.33
2022-10-05T23:53:50.544Z,12.28
2022-10-05T23:56:18.513Z,12.27
2022-10-05T23:58:46.830Z,12.23
